createdAt,value
2017-12-30T00:00:47.328Z,4.01
2017-12-30T00:01:48.846Z,4.02
2017-12-30T00:02:48.122Z,4.02
2017-12-30T00:03:47.596Z,4.04
2017-12-30T00:04:47.680Z,4.04
2017-12-30T00:05:47.946Z,4.08
2017-12-30T00:06:47.198Z,4.12
2017-12-30T00:07:47.016Z,4.16
2017-12-30T00:08:47.404Z,4.20
2017-12-30T00:09:47.158Z,4.19
2017-12-30T00:10:47.111Z,4.17
2017-12-30T00:11:29.550Z,4.19
2017-12-30T00:11:54.961Z,4.19
2017-12-30T00:12:21.365Z,4.20
2017-12-30T00:12:58.315Z,4.22
2017-12-30T00:13:58.555Z,4.24
2017-12-30T00:14:58.746Z,4.30
2017-12-30T00:15:25.060Z,4.30
2017-12-30T00:15:50.462Z,4.31
2017-12-30T00:16:16.015Z,4.32
2017-12-30T00:16:41.746Z,4.32
2017-12-30T00:17:29.359Z,4.31
2017-12-30T00:18:29.146Z,4.30
2017-12-30T00:18:55.684Z,4.30
2017-12-30T00:19:48.299Z,4.28
2017-12-30T00:20:14.193Z,4.30
2017-12-30T00:20:40.213Z,4.31
2017-12-30T00:21:37.721Z,4.32
2017-12-30T00:22:32.675Z,4.32
2017-12-30T00:22:58.544Z,4.32
2017-12-30T00:23:24.362Z,4.32
2017-12-30T00:23:50.225Z,4.34
2017-12-30T00:24:15.898Z,4.34
2017-12-30T00:24:41.153Z,4.34
2017-12-30T00:25:07.730Z,4.34
2017-12-30T00:25:33.653Z,4.35
2017-12-30T00:25:59.193Z,4.35
2017-12-30T00:26:25.862Z,4.35
2017-12-30T00:26:48.435Z,4.35
2017-12-30T00:27:13.397Z,4.37
2017-12-30T00:27:38.936Z,4.38
2017-12-30T00:28:31.409Z,4.41
2017-12-30T00:28:58.104Z,4.41
2017-12-30T00:29:24.260Z,4.41
2017-12-30T00:29:49.768Z,4.42
2017-12-30T00:30:16.399Z,4.44
2017-12-30T00:30:42.514Z,4.45
2017-12-30T00:31:09.808Z,4.45
2017-12-30T00:31:35.284Z,4.48
2017-12-30T00:32:00.957Z,4.48
2017-12-30T00:32:26.241Z,4.49
2017-12-30T00:32:51.684Z,4.49
2017-12-30T00:33:17.832Z,4.49
2017-12-30T00:33:44.898Z,4.49
2017-12-30T00:34:10.443Z,4.49
2017-12-30T00:34:35.923Z,4.48
2017-12-30T00:35:01.626Z,4.45
2017-12-30T00:35:27.305Z,4.45
2017-12-30T00:35:53.562Z,4.45
2017-12-30T00:36:19.258Z,4.48
2017-12-30T00:36:46.223Z,4.48
2017-12-30T00:37:12.743Z,4.45
2017-12-30T00:37:39.390Z,4.48
2017-12-30T00:38:05.243Z,4.45
2017-12-30T00:38:30.312Z,4.48
2017-12-30T00:38:55.372Z,4.48
2017-12-30T00:39:20.690Z,4.49
2017-12-30T00:39:47.495Z,4.49
2017-12-30T00:40:39.294Z,4.52
2017-12-30T00:41:04.890Z,4.53
2017-12-30T00:41:30.244Z,4.56
2017-12-30T00:42:31.032Z,4.58
2017-12-30T00:43:57.302Z,4.62
2017-12-30T00:44:24.310Z,4.62
2017-12-30T00:44:49.415Z,4.63
2017-12-30T00:45:40.564Z,4.62
2017-12-30T00:46:07.320Z,4.62
2017-12-30T00:46:32.910Z,4.63
2017-12-30T00:46:58.460Z,4.66
2017-12-30T00:47:26.309Z,4.66
2017-12-30T00:47:52.700Z,4.66
2017-12-30T00:48:19.673Z,4.68
2017-12-30T00:48:45.130Z,4.67
2017-12-30T00:49:10.621Z,4.70
2017-12-30T00:49:37.173Z,4.68
2017-12-30T00:50:04.238Z,4.70
2017-12-30T00:50:29.543Z,4.68
2017-12-30T00:51:20.829Z,4.68
2017-12-30T00:51:46.406Z,4.68
2017-12-30T00:52:11.855Z,4.70
2017-12-30T00:52:37.670Z,4.68
2017-12-30T00:53:02.771Z,4.68
2017-12-30T00:53:28.332Z,4.70
2017-12-30T00:53:53.745Z,4.68
2017-12-30T00:54:18.716Z,4.71
2017-12-30T00:54:44.808Z,4.71
2017-12-30T00:55:10.209Z,4.74
2017-12-30T00:55:35.212Z,4.77
2017-12-30T00:56:01.064Z,4.77
2017-12-30T00:56:26.559Z,4.78
2017-12-30T00:56:52.009Z,4.84
2017-12-30T00:57:43.583Z,4.84
2017-12-30T00:58:09.057Z,4.84
2017-12-30T00:58:34.442Z,4.84
2017-12-30T00:58:59.761Z,4.84
2017-12-30T00:59:24.740Z,4.84
2017-12-30T00:59:50.358Z,4.86
2017-12-30T01:00:15.938Z,4.86
2017-12-30T01:00:40.825Z,4.84
2017-12-30T01:01:07.017Z,4.82
2017-12-30T01:01:32.708Z,4.80
2017-12-30T01:01:57.968Z,4.80
2017-12-30T01:02:22.958Z,4.78
2017-12-30T01:02:47.991Z,4.77
2017-12-30T01:03:14.184Z,4.77
2017-12-30T01:03:47.989Z,4.78
2017-12-30T01:04:48.132Z,4.77
2017-12-30T01:05:48.201Z,4.82
2017-12-30T01:06:14.451Z,4.84
2017-12-30T01:07:06.891Z,4.84
2017-12-30T01:07:32.815Z,4.82
2017-12-30T01:07:59.319Z,4.80
2017-12-30T01:08:24.987Z,4.84
2017-12-30T01:08:50.555Z,4.84
2017-12-30T01:09:16.028Z,4.89
2017-12-30T01:10:07.273Z,4.89
2017-12-30T01:10:32.883Z,4.89
2017-12-30T01:10:58.557Z,4.90
2017-12-30T01:11:23.636Z,4.90
2017-12-30T01:11:49.537Z,4.89
2017-12-30T01:12:16.648Z,4.89
2017-12-30T01:12:42.402Z,4.92
2017-12-30T01:13:42.437Z,4.93
2017-12-30T01:14:43.015Z,4.93
2017-12-30T01:15:42.830Z,4.94
2017-12-30T01:16:43.038Z,4.92
2017-12-30T01:17:43.090Z,4.93
2017-12-30T01:18:43.609Z,4.96
2017-12-30T01:19:44.173Z,4.94
2017-12-30T01:20:43.275Z,4.96
2017-12-30T01:21:43.211Z,4.94
2017-12-30T01:22:42.896Z,4.94
2017-12-30T01:23:43.232Z,4.96
2017-12-30T01:24:42.820Z,4.96
2017-12-30T01:25:42.904Z,4.97
2017-12-30T01:26:43.701Z,4.96
2017-12-30T01:27:43.538Z,5.02
2017-12-30T01:28:43.341Z,5.05
2017-12-30T01:29:42.609Z,5.04
2017-12-30T01:30:42.149Z,5.02
2017-12-30T01:31:44.673Z,5.04
2017-12-30T01:32:42.198Z,5.02
2017-12-30T01:33:42.347Z,5.02
2017-12-30T01:34:42.120Z,5.02
2017-12-30T01:36:06.739Z,4.99
2017-12-30T01:37:07.376Z,5.02
2017-12-30T01:38:06.532Z,5.04
2017-12-30T01:39:08.143Z,5.04
2017-12-30T01:40:06.886Z,5.04
2017-12-30T01:41:07.366Z,5.04
2017-12-30T01:42:07.982Z,5.05
2017-12-30T01:43:08.082Z,5.02
2017-12-30T01:44:09.222Z,5.02
2017-12-30T01:45:09.024Z,5.00
2017-12-30T01:46:07.879Z,4.99
2017-12-30T01:47:07.464Z,4.96
2017-12-30T01:48:06.283Z,4.93
2017-12-30T01:49:07.410Z,4.96
2017-12-30T01:50:07.338Z,4.94
2017-12-30T01:51:07.620Z,4.94
2017-12-30T01:52:06.441Z,4.93
2017-12-30T01:53:07.130Z,4.96
2017-12-30T01:54:07.609Z,4.96
2017-12-30T01:55:06.634Z,4.96
2017-12-30T01:56:06.731Z,4.93
2017-12-30T01:57:07.275Z,4.96
2017-12-30T01:58:07.750Z,5.00
2017-12-30T01:59:06.602Z,5.02
2017-12-30T02:00:06.795Z,5.00
2017-12-30T02:01:06.498Z,5.04
2017-12-30T02:02:07.116Z,5.02
2017-12-30T02:03:07.113Z,5.04
2017-12-30T02:04:07.553Z,5.00
2017-12-30T02:05:06.853Z,5.00
2017-12-30T02:06:06.629Z,5.00
2017-12-30T02:07:06.460Z,5.02
2017-12-30T02:08:07.130Z,5.05
2017-12-30T02:09:06.914Z,5.08
2017-12-30T02:10:07.429Z,5.08
2017-12-30T02:11:07.644Z,5.11
2017-12-30T02:12:06.500Z,5.11
2017-12-30T02:13:06.628Z,5.08
2017-12-30T02:14:06.392Z,5.07
2017-12-30T02:15:07.587Z,5.02
2017-12-30T02:16:06.586Z,4.99
2017-12-30T02:17:08.069Z,4.96
2017-12-30T02:18:06.942Z,4.99
2017-12-30T02:19:06.921Z,5.00
2017-12-30T02:20:07.357Z,5.02
2017-12-30T02:21:07.722Z,5.05
2017-12-30T02:22:07.070Z,5.05
2017-12-30T02:23:07.643Z,5.08
2017-12-30T02:24:06.638Z,5.07
2017-12-30T02:25:06.743Z,5.05
2017-12-30T02:26:06.929Z,5.04
2017-12-30T02:27:07.153Z,5.04
2017-12-30T02:28:07.024Z,5.07
2017-12-30T02:29:07.287Z,5.11
2017-12-30T02:30:07.551Z,5.11
2017-12-30T02:31:06.484Z,5.10
2017-12-30T02:32:07.767Z,5.08
2017-12-30T02:33:06.691Z,5.08
2017-12-30T02:34:06.289Z,5.08
2017-12-30T02:35:07.282Z,5.08
2017-12-30T02:36:07.658Z,5.11
2017-12-30T02:37:29.140Z,5.08
2017-12-30T02:38:29.367Z,5.02
2017-12-30T02:39:29.692Z,4.99
2017-12-30T02:40:29.609Z,4.97
2017-12-30T02:41:29.984Z,5.00
2017-12-30T02:42:29.082Z,4.99
2017-12-30T02:43:28.878Z,4.99
2017-12-30T02:44:29.106Z,4.97
2017-12-30T02:45:29.404Z,4.97
2017-12-30T02:46:29.427Z,4.94
2017-12-30T02:47:29.389Z,4.93
2017-12-30T02:48:29.358Z,4.92
2017-12-30T02:49:29.011Z,4.90
2017-12-30T02:50:28.679Z,4.89
2017-12-30T02:51:29.935Z,4.87
2017-12-30T02:52:29.428Z,4.87
2017-12-30T02:53:29.839Z,4.86
2017-12-30T02:54:28.642Z,4.78
2017-12-30T02:55:29.357Z,4.74
2017-12-30T02:56:28.761Z,4.77
2017-12-30T02:57:29.128Z,4.75
2017-12-30T02:58:28.916Z,4.74
2017-12-30T02:59:30.087Z,4.68
2017-12-30T03:00:29.255Z,4.67
2017-12-30T03:01:29.234Z,4.63
2017-12-30T03:02:29.190Z,4.58
2017-12-30T03:03:29.536Z,4.58
2017-12-30T03:04:29.844Z,4.55
2017-12-30T03:05:30.068Z,4.53
2017-12-30T03:06:28.984Z,4.50
2017-12-30T03:07:29.314Z,4.49
2017-12-30T03:08:52.160Z,4.44
2017-12-30T03:10:14.306Z,4.45
2017-12-30T03:11:14.039Z,4.41
2017-12-30T03:12:14.422Z,4.38
2017-12-30T03:13:14.714Z,4.41
2017-12-30T03:14:15.112Z,4.41
2017-12-30T03:15:14.120Z,4.41
2017-12-30T03:16:14.473Z,4.42
2017-12-30T03:17:14.433Z,4.42
2017-12-30T03:18:36.242Z,4.45
2017-12-30T03:19:36.908Z,4.44
2017-12-30T03:20:36.966Z,4.45
2017-12-30T03:21:37.085Z,4.49
2017-12-30T03:22:37.041Z,4.52
2017-12-30T03:23:37.003Z,4.53
2017-12-30T03:24:37.279Z,4.53
2017-12-30T03:25:37.549Z,4.56
2017-12-30T03:26:36.644Z,4.53
2017-12-30T03:27:37.016Z,4.55
2017-12-30T03:28:37.084Z,4.55
2017-12-30T03:29:37.466Z,4.58
2017-12-30T03:30:59.873Z,4.59
2017-12-30T03:32:00.148Z,4.62
2017-12-30T03:32:59.960Z,4.60
2017-12-30T03:34:00.378Z,4.59
2017-12-30T03:35:00.810Z,4.59
2017-12-30T03:35:59.595Z,4.58
2017-12-30T03:36:59.445Z,4.59
2017-12-30T03:38:00.150Z,4.63
2017-12-30T03:39:00.640Z,4.67
2017-12-30T03:39:59.422Z,4.63
2017-12-30T03:41:00.220Z,4.62
2017-12-30T03:42:00.486Z,4.62
2017-12-30T03:43:00.024Z,4.62
2017-12-30T03:43:59.962Z,4.62
2017-12-30T03:44:59.653Z,4.59
2017-12-30T03:45:59.403Z,4.58
2017-12-30T03:46:59.491Z,4.53
2017-12-30T03:48:00.396Z,4.59
2017-12-30T03:49:00.272Z,4.58
2017-12-30T03:50:00.201Z,4.58
2017-12-30T03:50:59.977Z,4.58
2017-12-30T03:52:00.266Z,4.60
2017-12-30T03:53:00.522Z,4.59
2017-12-30T03:54:00.767Z,4.59
2017-12-30T03:55:00.121Z,4.58
2017-12-30T03:56:00.027Z,4.55
2017-12-30T03:56:59.991Z,4.50
2017-12-30T03:57:59.922Z,4.50
2017-12-30T03:58:59.877Z,4.48
2017-12-30T04:00:00.148Z,4.45
2017-12-30T04:01:00.568Z,4.41
2017-12-30T04:02:00.123Z,4.40
2017-12-30T04:03:00.575Z,4.38
2017-12-30T04:03:59.101Z,4.35
2017-12-30T04:04:59.533Z,4.32
2017-12-30T04:06:00.025Z,4.30
2017-12-30T04:06:59.733Z,4.24
2017-12-30T04:08:00.246Z,4.26
2017-12-30T04:09:21.879Z,4.26
2017-12-30T04:10:21.384Z,4.28
2017-12-30T04:11:22.037Z,4.30
2017-12-30T04:12:21.811Z,4.24
2017-12-30T04:12:55.177Z,4.24
2017-12-30T04:13:56.413Z,4.23
2017-12-30T04:14:56.655Z,4.23
2017-12-30T04:15:55.881Z,4.17
2017-12-30T04:16:56.357Z,4.14
2017-12-30T04:17:56.023Z,4.08
2017-12-30T04:18:56.241Z,4.12
2017-12-30T04:19:55.928Z,4.13
2017-12-30T04:20:56.319Z,4.17
2017-12-30T04:21:55.946Z,4.19
2017-12-30T04:22:55.493Z,4.16
2017-12-30T04:23:55.371Z,4.14
2017-12-30T04:24:56.687Z,4.14
2017-12-30T04:25:55.939Z,4.14
2017-12-30T04:26:56.193Z,4.13
2017-12-30T04:27:55.950Z,4.13
2017-12-30T04:28:55.534Z,4.13
2017-12-30T04:29:56.828Z,4.13
2017-12-30T04:30:56.138Z,4.13
2017-12-30T04:32:18.430Z,4.16
2017-12-30T04:33:18.782Z,4.17
2017-12-30T04:34:18.466Z,4.17
2017-12-30T04:35:18.851Z,4.16
2017-12-30T04:36:19.223Z,4.12
2017-12-30T04:37:18.728Z,4.06
2017-12-30T04:38:18.273Z,4.06
2017-12-30T04:39:18.432Z,4.01
2017-12-30T04:40:18.788Z,4.05
2017-12-30T04:41:19.124Z,4.05
2017-12-30T04:42:19.311Z,4.04
2017-12-30T04:43:19.433Z,4.02
2017-12-30T04:44:17.872Z,3.99
2017-12-30T04:45:18.305Z,3.99
2017-12-30T04:46:17.915Z,3.99
2017-12-30T04:47:18.710Z,3.99
2017-12-30T04:48:18.352Z,3.96
2017-12-30T04:49:18.678Z,3.94
2017-12-30T04:50:19.112Z,3.94
2017-12-30T04:51:19.286Z,3.91
2017-12-30T04:52:18.547Z,3.88
2017-12-30T04:53:18.234Z,3.94
2017-12-30T04:54:18.651Z,3.95
2017-12-30T04:55:18.732Z,3.96
2017-12-30T04:56:19.085Z,3.96
2017-12-30T04:57:18.861Z,3.95
2017-12-30T04:58:18.603Z,3.94
2017-12-30T04:59:18.523Z,3.88
2017-12-30T05:00:18.860Z,3.91
2017-12-30T05:01:18.801Z,3.88
2017-12-30T05:02:18.670Z,3.95
2017-12-30T05:03:19.183Z,3.94
2017-12-30T05:04:17.782Z,3.96
2017-12-30T05:05:19.002Z,3.95
2017-12-30T05:06:19.214Z,3.95
2017-12-30T05:07:18.528Z,3.94
2017-12-30T05:08:18.946Z,3.91
2017-12-30T05:09:19.273Z,3.86
2017-12-30T05:10:18.631Z,3.86
2017-12-30T05:11:19.115Z,3.87
2017-12-30T05:12:18.485Z,3.92
2017-12-30T05:13:18.649Z,3.94
2017-12-30T05:14:18.502Z,3.94
2017-12-30T05:15:18.932Z,3.92
2017-12-30T05:16:18.469Z,3.91
2017-12-30T05:17:18.156Z,3.92
2017-12-30T05:18:17.750Z,3.95
2017-12-30T05:19:18.356Z,3.94
2017-12-30T05:20:17.941Z,3.88
2017-12-30T05:21:18.517Z,3.92
2017-12-30T05:22:18.067Z,3.95
2017-12-30T05:23:19.440Z,3.88
2017-12-30T05:24:18.190Z,3.88
2017-12-30T05:25:18.012Z,3.91
2017-12-30T05:26:18.755Z,3.87
2017-12-30T05:27:19.034Z,3.88
2017-12-30T05:28:18.849Z,3.87
2017-12-30T05:29:18.632Z,3.86
2017-12-30T05:30:32.050Z,3.83
2017-12-30T05:31:18.714Z,3.84
2017-12-30T05:32:19.063Z,3.81
2017-12-30T05:33:19.345Z,3.80
2017-12-30T05:34:18.130Z,3.78
2017-12-30T05:35:18.605Z,3.81
2017-12-30T05:36:18.756Z,3.81
2017-12-30T05:37:18.593Z,3.83
2017-12-30T05:38:18.795Z,3.88
2017-12-30T05:39:18.443Z,3.87
2017-12-30T05:40:18.861Z,3.87
2017-12-30T05:41:19.172Z,3.83
2017-12-30T05:42:18.075Z,3.87
2017-12-30T05:43:19.417Z,3.87
2017-12-30T05:44:18.857Z,3.87
2017-12-30T05:45:19.271Z,3.87
2017-12-30T05:46:17.755Z,3.86
2017-12-30T05:47:18.460Z,3.87
2017-12-30T05:48:18.144Z,3.84
2017-12-30T05:49:19.332Z,3.84
2017-12-30T05:50:18.055Z,3.83
2017-12-30T05:51:17.956Z,3.84
2017-12-30T05:52:18.498Z,3.88
2017-12-30T05:53:18.365Z,3.94
2017-12-30T05:54:18.608Z,3.94
2017-12-30T05:55:18.379Z,3.91
2017-12-30T05:56:17.919Z,3.87
2017-12-30T05:57:18.607Z,3.83
2017-12-30T05:58:19.076Z,3.83
2017-12-30T05:59:17.748Z,3.88
2017-12-30T06:00:19.004Z,3.94
2017-12-30T06:01:18.680Z,3.95
2017-12-30T06:02:18.320Z,3.95
2017-12-30T06:03:18.525Z,3.98
2017-12-30T06:04:18.330Z,3.99
2017-12-30T06:05:18.651Z,3.95
2017-12-30T06:06:19.030Z,3.94
2017-12-30T06:07:19.306Z,3.94
2017-12-30T06:08:17.845Z,3.94
2017-12-30T06:09:19.157Z,3.96
2017-12-30T06:10:18.204Z,3.96
2017-12-30T06:11:18.983Z,3.94
2017-12-30T06:12:18.757Z,3.92
2017-12-30T06:13:18.454Z,3.95
2017-12-30T06:14:18.505Z,3.96
2017-12-30T06:15:18.326Z,3.98
2017-12-30T06:16:18.075Z,4.01
2017-12-30T06:17:19.304Z,4.02
2017-12-30T06:18:18.047Z,3.99
2017-12-30T06:19:18.622Z,3.98
2017-12-30T06:20:18.733Z,4.02
2017-12-30T06:21:18.283Z,4.02
2017-12-30T06:22:17.994Z,3.99
2017-12-30T06:23:18.556Z,3.95
2017-12-30T06:24:18.810Z,3.95
2017-12-30T06:25:19.149Z,3.94
2017-12-30T06:26:18.091Z,3.92
2017-12-30T06:27:19.468Z,3.92
2017-12-30T06:28:18.335Z,3.91
2017-12-30T06:29:17.923Z,3.94
2017-12-30T06:30:19.310Z,3.95
2017-12-30T06:31:17.993Z,3.98
2017-12-30T06:32:19.398Z,3.98
2017-12-30T06:33:18.554Z,3.98
2017-12-30T06:34:18.379Z,4.01
2017-12-30T06:35:18.142Z,3.99
2017-12-30T06:36:18.077Z,3.99
2017-12-30T06:37:18.560Z,3.98
2017-12-30T06:38:18.215Z,3.98
2017-12-30T06:39:17.787Z,3.99
2017-12-30T06:40:18.361Z,3.95
2017-12-30T06:41:18.000Z,3.94
2017-12-30T06:42:18.871Z,3.94
2017-12-30T06:43:18.763Z,3.95
2017-12-30T06:44:19.137Z,3.95
2017-12-30T06:45:18.580Z,3.99
2017-12-30T06:46:18.117Z,4.02
2017-12-30T06:47:17.841Z,4.02
2017-12-30T06:48:18.931Z,4.04
2017-12-30T06:49:18.860Z,4.02
2017-12-30T06:50:18.432Z,4.02
2017-12-30T06:51:18.855Z,4.02
2017-12-30T06:52:18.824Z,4.04
2017-12-30T06:53:18.466Z,4.02
2017-12-30T06:54:19.315Z,4.04
2017-12-30T06:55:18.638Z,4.04
2017-12-30T06:56:18.238Z,4.05
2017-12-30T06:57:18.694Z,4.02
2017-12-30T06:58:18.445Z,4.04
2017-12-30T06:59:18.547Z,4.06
2017-12-30T07:00:19.000Z,4.08
2017-12-30T07:01:18.747Z,4.08
2017-12-30T07:02:18.844Z,4.08
2017-12-30T07:03:19.221Z,4.06
2017-12-30T07:04:18.030Z,4.06
2017-12-30T07:05:18.664Z,4.10
2017-12-30T07:06:19.241Z,4.10
2017-12-30T07:07:18.060Z,4.12
2017-12-30T07:08:19.240Z,4.12
2017-12-30T07:09:18.578Z,4.12
2017-12-30T07:10:18.360Z,4.10
2017-12-30T07:11:19.661Z,4.08
2017-12-30T07:12:18.832Z,4.06
2017-12-30T07:13:18.682Z,4.06
2017-12-30T07:14:40.550Z,4.06
2017-12-30T07:15:41.545Z,4.06
2017-12-30T07:16:41.194Z,4.05
2017-12-30T07:17:41.048Z,4.08
2017-12-30T07:18:40.764Z,4.10
2017-12-30T07:19:41.081Z,4.10
2017-12-30T07:20:40.876Z,4.13
2017-12-30T07:21:41.259Z,4.13
2017-12-30T07:22:40.933Z,4.13
2017-12-30T07:23:41.299Z,4.13
2017-12-30T07:24:41.171Z,4.12
2017-12-30T07:25:40.657Z,4.14
2017-12-30T07:26:41.365Z,4.13
2017-12-30T07:27:41.852Z,4.08
2017-12-30T07:28:40.928Z,4.08
2017-12-30T07:29:40.535Z,4.10
2017-12-30T07:30:41.976Z,4.06
2017-12-30T07:31:40.757Z,4.02
2017-12-30T07:32:40.559Z,4.01
2017-12-30T07:33:41.399Z,3.98
2017-12-30T07:34:41.828Z,3.96
2017-12-30T07:36:02.185Z,3.95
2017-12-30T07:37:02.982Z,3.94
2017-12-30T07:38:02.598Z,3.92
2017-12-30T07:39:02.411Z,3.88
2017-12-30T07:40:02.893Z,3.87
2017-12-30T07:41:03.113Z,3.88
2017-12-30T07:42:02.922Z,3.87
2017-12-30T07:43:24.903Z,3.84
2017-12-30T07:44:25.470Z,3.83
2017-12-30T07:45:24.968Z,3.81
2017-12-30T07:46:24.726Z,3.83
2017-12-30T07:47:24.705Z,3.80
2017-12-30T07:48:24.625Z,3.78
2017-12-30T07:49:24.412Z,3.76
2017-12-30T07:50:25.322Z,3.74
2017-12-30T07:51:25.578Z,3.73
2017-12-30T07:52:25.140Z,3.74
2017-12-30T07:53:25.487Z,3.70
2017-12-30T07:54:26.077Z,3.66
2017-12-30T07:55:25.463Z,3.65
2017-12-30T07:56:24.295Z,3.62
2017-12-30T07:57:25.589Z,3.60
2017-12-30T07:58:24.982Z,3.59
2017-12-30T07:59:25.133Z,3.56
2017-12-30T08:00:24.961Z,3.55
2017-12-30T08:01:24.635Z,3.53
2017-12-30T08:02:46.140Z,3.51
2017-12-30T08:03:45.949Z,3.50
2017-12-30T08:04:46.407Z,3.48
2017-12-30T08:05:46.830Z,3.45
2017-12-30T08:07:09.531Z,3.44
2017-12-30T08:08:09.411Z,3.41
2017-12-30T08:09:09.079Z,3.41
2017-12-30T08:10:10.453Z,3.40
2017-12-30T08:11:09.878Z,3.37
2017-12-30T08:12:09.661Z,3.37
2017-12-30T08:13:10.004Z,3.36
2017-12-30T08:14:10.146Z,3.34
2017-12-30T08:15:09.679Z,3.32
2017-12-30T08:16:10.010Z,3.34
2017-12-30T08:17:10.586Z,3.32
2017-12-30T08:18:09.985Z,3.31
2017-12-30T08:19:13.218Z,3.29
2017-12-30T08:20:10.486Z,3.29
2017-12-30T08:21:32.973Z,3.31
2017-12-30T08:22:32.737Z,3.31
2017-12-30T08:23:31.874Z,3.29
2017-12-30T08:24:53.721Z,3.29
2017-12-30T08:25:53.767Z,3.26
2017-12-30T08:27:16.560Z,3.26
2017-12-30T08:28:16.492Z,3.26
2017-12-30T08:29:16.355Z,3.25
2017-12-30T08:30:16.381Z,3.26
2017-12-30T08:31:16.820Z,3.26
2017-12-30T08:32:17.277Z,3.26
2017-12-30T08:33:15.996Z,3.29
2017-12-30T08:34:16.764Z,3.26
2017-12-30T08:35:16.717Z,3.29
2017-12-30T08:36:17.208Z,3.31
2017-12-30T08:37:16.351Z,3.29
2017-12-30T08:38:16.185Z,3.29
2017-12-30T08:39:15.939Z,3.29
2017-12-30T08:40:17.388Z,3.28
2017-12-30T08:41:16.543Z,3.29
2017-12-30T08:42:17.196Z,3.28
2017-12-30T08:43:16.238Z,3.28
2017-12-30T08:44:16.395Z,3.28
2017-12-30T08:45:16.501Z,3.28
2017-12-30T08:46:17.023Z,3.28
2017-12-30T08:47:17.466Z,3.29
2017-12-30T08:48:17.002Z,3.31
2017-12-30T08:49:16.949Z,3.32
2017-12-30T08:50:17.458Z,3.36
2017-12-30T08:51:16.821Z,3.34
2017-12-30T08:52:17.012Z,3.34
2017-12-30T08:53:18.200Z,3.32
2017-12-30T08:54:17.505Z,3.34
2017-12-30T08:55:16.406Z,3.36
2017-12-30T08:56:16.938Z,3.36
2017-12-30T08:57:17.502Z,3.37
2017-12-30T08:58:56.457Z,3.37
2017-12-30T08:59:56.838Z,3.40
2017-12-30T09:00:57.255Z,3.41
2017-12-30T09:01:56.389Z,3.41
2017-12-30T09:02:55.999Z,3.41
2017-12-30T09:03:56.924Z,3.42
2017-12-30T09:04:57.021Z,3.44
2017-12-30T09:05:57.098Z,3.47
2017-12-30T09:06:56.555Z,3.48
2017-12-30T09:07:57.084Z,3.50
2017-12-30T09:08:56.467Z,3.51
2017-12-30T09:09:56.906Z,3.53
2017-12-30T09:11:18.461Z,3.55
2017-12-30T09:12:18.921Z,3.55
2017-12-30T09:13:19.388Z,3.55
2017-12-30T09:14:18.474Z,3.58
2017-12-30T09:15:18.917Z,3.58
2017-12-30T09:16:18.881Z,3.56
2017-12-30T09:17:18.880Z,3.58
2017-12-30T09:18:19.313Z,3.56
2017-12-30T09:19:19.301Z,3.58
2017-12-30T09:20:18.847Z,3.56
2017-12-30T09:21:19.261Z,3.58
2017-12-30T09:22:19.332Z,3.58
2017-12-30T09:23:19.444Z,3.59
2017-12-30T09:24:19.423Z,3.60
2017-12-30T09:25:18.703Z,3.63
2017-12-30T09:26:18.826Z,3.63
2017-12-30T09:27:18.954Z,3.63
2017-12-30T09:28:19.093Z,3.65
2017-12-30T09:29:19.122Z,3.66
2017-12-30T09:30:19.657Z,3.68
2017-12-30T09:31:19.198Z,3.70
2017-12-30T09:32:19.259Z,3.70
2017-12-30T09:33:19.586Z,3.73
2017-12-30T09:34:18.660Z,3.70
2017-12-30T09:35:18.480Z,3.73
2017-12-30T09:36:18.708Z,3.74
2017-12-30T09:37:19.618Z,3.77
2017-12-30T09:38:19.404Z,3.77
2017-12-30T09:39:19.299Z,3.76
2017-12-30T09:40:19.764Z,3.77
2017-12-30T09:41:19.055Z,3.77
2017-12-30T09:42:19.625Z,3.81
2017-12-30T09:43:19.153Z,3.84
2017-12-30T09:44:19.642Z,3.88
2017-12-30T09:45:18.507Z,3.88
2017-12-30T09:46:18.598Z,3.91
2017-12-30T09:47:20.594Z,3.96
2017-12-30T09:48:42.608Z,3.99
2017-12-30T09:49:44.129Z,3.98
2017-12-30T09:50:43.183Z,3.99
2017-12-30T09:51:43.779Z,4.04
2017-12-30T09:52:44.179Z,4.05
2017-12-30T09:53:43.284Z,4.12
2017-12-30T09:54:43.745Z,4.14
2017-12-30T09:55:44.530Z,4.13
2017-12-30T09:56:44.122Z,4.10
2017-12-30T09:57:43.495Z,4.08
2017-12-30T09:58:43.989Z,4.06
2017-12-30T09:59:43.461Z,4.06
2017-12-30T10:00:44.582Z,4.05
2017-12-30T10:01:43.861Z,4.04
2017-12-30T10:02:43.433Z,4.08
2017-12-30T10:03:43.682Z,4.14
2017-12-30T10:04:44.697Z,4.14
2017-12-30T10:05:44.004Z,4.16
2017-12-30T10:06:43.438Z,4.16
2017-12-30T10:07:44.021Z,4.24
2017-12-30T10:08:48.857Z,4.26
2017-12-30T10:09:44.595Z,4.24
2017-12-30T10:10:44.122Z,4.20
2017-12-30T10:11:43.675Z,4.19
2017-12-30T10:12:44.364Z,4.19
2017-12-30T10:13:44.285Z,4.20
2017-12-30T10:14:43.661Z,4.20
2017-12-30T10:15:44.031Z,4.22
2017-12-30T10:16:43.378Z,4.23
2017-12-30T10:17:43.970Z,4.24
2017-12-30T10:18:44.115Z,4.26
2017-12-30T10:19:43.515Z,4.26
2017-12-30T10:20:43.602Z,4.28
2017-12-30T10:21:43.977Z,4.28
2017-12-30T10:22:43.274Z,4.30
2017-12-30T10:23:43.649Z,4.31
2017-12-30T10:24:44.190Z,4.32
2017-12-30T10:25:43.689Z,4.37
2017-12-30T10:26:44.192Z,4.38
2017-12-30T10:27:43.527Z,4.40
2017-12-30T10:28:44.008Z,4.40
2017-12-30T10:30:05.529Z,4.41
2017-12-30T10:31:06.141Z,4.42
2017-12-30T10:32:05.663Z,4.45
2017-12-30T10:33:06.207Z,4.50
2017-12-30T10:34:05.644Z,4.53
2017-12-30T10:35:06.163Z,4.53
2017-12-30T10:36:06.618Z,4.52
2017-12-30T10:37:06.721Z,4.50
2017-12-30T10:38:06.175Z,4.49
2017-12-30T10:39:06.204Z,4.49
2017-12-30T10:40:05.603Z,4.50
2017-12-30T10:41:28.351Z,4.49
2017-12-30T10:42:28.894Z,4.50
2017-12-30T10:43:28.662Z,4.55
2017-12-30T10:44:28.566Z,4.63
2017-12-30T10:45:28.148Z,4.66
2017-12-30T10:46:29.300Z,4.63
2017-12-30T10:47:28.726Z,4.66
2017-12-30T10:48:28.188Z,4.63
2017-12-30T10:49:28.727Z,4.78
2017-12-30T10:50:28.283Z,4.86
2017-12-30T10:51:29.287Z,4.87
2017-12-30T10:52:28.880Z,4.90
2017-12-30T10:53:28.327Z,4.89
2017-12-30T10:54:29.130Z,4.93
2017-12-30T10:55:28.492Z,4.93
2017-12-30T10:56:28.524Z,4.94
2017-12-30T10:57:29.034Z,4.94
2017-12-30T10:58:28.458Z,4.94
2017-12-30T10:59:28.964Z,4.92
2017-12-30T11:00:28.233Z,4.92
2017-12-30T11:01:28.691Z,4.90
2017-12-30T11:02:28.196Z,4.90
2017-12-30T11:03:28.625Z,4.92
2017-12-30T11:04:28.978Z,4.93
2017-12-30T11:05:29.088Z,4.94
2017-12-30T11:06:28.519Z,4.97
2017-12-30T11:07:29.246Z,5.00
2017-12-30T11:08:29.064Z,5.04
2017-12-30T11:09:28.399Z,5.07
2017-12-30T11:10:28.918Z,5.11
2017-12-30T11:11:28.471Z,5.17
2017-12-30T11:12:28.999Z,5.21
2017-12-30T11:13:28.418Z,5.20
2017-12-30T11:14:29.292Z,5.28
2017-12-30T11:15:28.855Z,5.39
2017-12-30T11:16:28.894Z,5.43
2017-12-30T11:17:28.408Z,5.41
2017-12-30T11:18:29.225Z,5.39
2017-12-30T11:19:29.158Z,5.39
2017-12-30T11:20:29.572Z,5.41
2017-12-30T11:21:28.590Z,5.43
2017-12-30T11:22:27.775Z,5.43
2017-12-30T11:23:28.514Z,5.44
2017-12-30T11:24:28.827Z,5.46
2017-12-30T11:25:28.311Z,5.46
2017-12-30T11:26:29.052Z,5.46
2017-12-30T11:27:29.126Z,5.47
2017-12-30T11:28:28.629Z,5.53
2017-12-30T11:29:29.850Z,5.54
2017-12-30T11:30:28.178Z,5.57
2017-12-30T11:31:28.789Z,5.61
2017-12-30T11:32:28.348Z,5.64
2017-12-30T11:33:28.807Z,5.65
2017-12-30T11:34:28.221Z,5.65
2017-12-30T11:35:29.650Z,5.66
2017-12-30T11:36:28.461Z,5.68
2017-12-30T11:37:29.226Z,5.71
2017-12-30T11:38:29.063Z,5.69
2017-12-30T11:39:28.181Z,5.72
2017-12-30T11:40:28.915Z,5.72
2017-12-30T11:41:50.826Z,5.75
2017-12-30T11:42:50.430Z,5.79
2017-12-30T11:43:50.856Z,5.82
2017-12-30T11:44:50.285Z,5.83
2017-12-30T11:45:50.663Z,5.83
2017-12-30T11:46:51.111Z,5.83
2017-12-30T11:47:50.568Z,5.83
2017-12-30T11:48:50.940Z,5.84
2017-12-30T11:49:50.304Z,5.84
2017-12-30T11:50:50.974Z,5.84
2017-12-30T11:51:50.088Z,5.84
2017-12-30T11:52:50.342Z,5.84
2017-12-30T11:53:50.613Z,5.84
2017-12-30T11:54:50.656Z,5.83
2017-12-30T11:55:51.246Z,5.83
2017-12-30T11:56:50.805Z,5.84
2017-12-30T11:57:51.872Z,5.83
2017-12-30T11:58:51.063Z,5.82
2017-12-30T12:00:12.446Z,5.82
2017-12-30T12:01:13.183Z,5.82
2017-12-30T12:02:13.094Z,5.83
2017-12-30T12:03:13.914Z,5.83
2017-12-30T12:04:13.128Z,5.84
2017-12-30T12:05:13.986Z,5.84
2017-12-30T12:06:13.106Z,5.84
2017-12-30T12:07:13.254Z,5.86
2017-12-30T12:08:13.908Z,5.87
2017-12-30T12:09:13.311Z,5.90
2017-12-30T12:10:14.255Z,5.90
2017-12-30T12:11:13.984Z,5.93
2017-12-30T12:12:13.383Z,5.93
2017-12-30T12:13:14.088Z,5.94
2017-12-30T12:14:13.471Z,5.97
2017-12-30T12:15:12.917Z,5.93
2017-12-30T12:16:35.296Z,5.98
2017-12-30T12:17:35.595Z,6.01
2017-12-30T12:18:36.034Z,6.04
2017-12-30T12:19:35.519Z,6.08
2017-12-30T12:20:35.991Z,6.09
2017-12-30T12:21:58.254Z,6.14
2017-12-30T12:22:58.930Z,6.16
2017-12-30T12:23:59.170Z,6.20
2017-12-30T12:24:59.661Z,6.24
2017-12-30T12:25:59.172Z,6.24
2017-12-30T12:26:59.141Z,6.26
2017-12-30T12:27:59.786Z,6.27
2017-12-30T12:28:59.053Z,6.31